Time;durP1;ratioP1;P1;durP2;ratioP2;P2;SDS_P1;SDS_P2;PMS_P1;PMS_P2;Temp;Humidity;BMP_temperature;BMP_pressure;BME280_temperature;BME280_humidity;BME280_pressure;Samples;Min_cycle;Max_cycle;Signal;HPM_P1;HPM_P2
2023/04/01 00:00:51;;;;;;;29.27;17.35;;;;;;;;;;6314072;22;20017;-74
2023/04/01 00:03:18;;;;;;;30.02;18.48;;;;;;;;;;6319744;22;20022;-75
2023/04/01 00:05:44;;;;;;;37.35;18.70;;;;;;;;;;6323275;22;20011;-73
2023/04/01 00:08:11;;;;;;;39.13;20.38;;;;;;;;;;6319732;22;20063;-74
2023/04/01 00:10:36;;;;;;;42.83;20.98;;;;;;;;;;6314383;22;20007;-75
2023/04/01 00:13:03;;;;;;;73.18;27.33;;;;;;;;;;6310976;22;20037;-74
2023/04/01 00:15:29;;;;;;;33.13;18.20;;;;;;;;;;6336870;22;20057;-74
2023/04/01 00:17:55;;;;;;;22.73;14.88;;;;;;;;;;6308914;22;20339;-74
2023/04/01 00:20:21;;;;;;;27.23;16.65;;;;;;;;;;6308555;22;20011;-73
2023/04/01 00:22:47;;;;;;;32.92;18.63;;;;;;;;;;6335442;22;20033;-75
2023/04/01 00:25:13;;;;;;;29.95;17.35;;;;;;;;;;6308295;22;20010;-75
2023/04/01 00:27:39;;;;;;;24.25;15.30;;;;;;;;;;6335275;22;20089;-75
2023/04/01 00:30:07;;;;;;;18.40;12.27;;;;;;;;;;6335393;22;20040;-74
2023/04/01 00:32:33;;;;;;;33.75;19.50;;;;;;;;;;6335016;22;20023;-74
2023/04/01 00:34:59;;;;;;;23.92;16.52;;;;;;;;;;6307516;22;20022;-74
2023/04/01 00:37:26;;;;;;;223.13;30.88;;;;;;;;;;6307268;22;20010;-74
2023/04/01 00:39:52;;;;;;;39.80;18.83;;;;;;;;;;6307296;22;20067;-74
2023/04/01 00:42:18;;;;;;;31.77;18.05;;;;;;;;;;6307600;22;20087;-74
2023/04/01 00:44:45;;;;;;;31.02;17.77;;;;;;;;;;6334211;22;20015;-73
2023/04/01 00:47:11;;;;;;;43.40;20.20;;;;;;;;;;6335217;22;20447;-73
2023/04/01 00:49:37;;;;;;;29.08;18.15;;;;;;;;;;6307122;22;20025;-74
2023/04/01 00:52:03;;;;;;;23.30;13.80;;;;;;;;;;6256507;22;20014;-73
2023/04/01 00:54:30;;;;;;;27.92;16.25;;;;;;;;;;6283385;22;20018;-74
2023/04/01 00:56:57;;;;;;;16.80;11.25;;;;;;;;;;6305185;22;20011;-75
2023/04/01 00:59:24;;;;;;;25.48;16.90;;;;;;;;;;6305436;22;20014;-73
2023/04/01 01:01:50;;;;;;;26.17;17.30;;;;;;;;;;6304966;22;20030;-73
2023/04/01 01:04:24;;;;;;;26.60;15.90;;;;;;;;;;6305438;22;20022;-74
2023/04/01 01:06:53;;;;;;;29.33;18.75;;;;;;;;;;6332505;22;20103;-74
2023/04/01 01:09:19;;;;;;;16.30;13.18;;;;;;;;;;6279517;22;20384;-72
2023/04/01 01:11:45;;;;;;;18.95;12.82;;;;;;;;;;6332628;22;20107;-73
2023/04/01 01:14:44;;;;;;;23.10;15.18;;;;;;;;;;6305170;22;20482;-73
2023/04/01 01:17:22;;;;;;;20.20;13.40;;;;;;;;;;6254249;22;20021;-74
2023/04/01 01:19:54;;;;;;;17.08;11.52;;;;;;;;;;6279206;22;20215;-74
2023/04/01 01:22:22;;;;;;;18.55;13.68;;;;;;;;;;6305623;22;20010;-75
2023/04/01 01:24:48;;;;;;;13.05;10.65;;;;;;;;;;6307174;22;20530;-74
2023/04/01 01:27:17;;;;;;;14.20;11.60;;;;;;;;;;6334845;22;20017;-73
2023/04/01 01:29:47;;;;;;;12.45;9.15;;;;;;;;;;6307133;22;20010;-75
2023/04/01 01:32:25;;;;;;;19.52;13.80;;;;;;;;;;6307207;22;20011;-74
2023/04/01 01:35:10;;;;;;;17.17;13.77;;;;;;;;;;6306929;22;20019;-74
2023/04/01 01:37:36;;;;;;;22.42;14.98;;;;;;;;;;6334813;22;20097;-74
2023/04/01 01:40:03;;;;;;;16.63;13.73;;;;;;;;;;6334501;22;20438;-74
2023/04/01 01:42:31;;;;;;;26.02;16.48;;;;;;;;;;6307353;22;20010;-73
2023/04/01 01:44:57;;;;;;;20.73;14.60;;;;;;;;;;6334543;22;20021;-74
2023/04/01 01:47:23;;;;;;;25.95;15.27;;;;;;;;;;6334747;22;20442;-73
2023/04/01 01:49:50;;;;;;;19.02;12.88;;;;;;;;;;6255503;22;20017;-74
2023/04/01 01:52:16;;;;;;;17.98;12.68;;;;;;;;;;6307270;22;20006;-74
2023/04/01 01:54:50;;;;;;;21.13;13.60;;;;;;;;;;6306938;22;20045;-74
2023/04/01 01:57:16;;;;;;;19.30;12.73;;;;;;;;;;6307276;22;20037;-73
2023/04/01 01:59:45;;;;;;;21.85;13.27;;;;;;;;;;6280792;22;20035;-72
2023/04/01 02:02:16;;;;;;;16.67;12.30;;;;;;;;;;6281132;22;20021;-73
2023/04/01 02:04:43;;;;;;;25.95;14.43;;;;;;;;;;6281177;22;20010;-74
2023/04/01 02:07:19;;;;;;;18.45;10.95;;;;;;;;;;6281917;22;20014;-75
2023/04/01 02:09:45;;;;;;;22.05;11.38;;;;;;;;;;6281536;22;20006;-74
2023/04/01 02:12:12;;;;;;;19.50;12.77;;;;;;;;;;6307403;22;20029;-73
2023/04/01 02:14:40;;;;;;;19.25;12.85;;;;;;;;;;6281088;22;20018;-74
2023/04/01 02:17:08;;;;;;;15.40;9.75;;;;;;;;;;6306979;22;20011;-75
2023/04/01 02:19:38;;;;;;;17.73;11.90;;;;;;;;;;6281527;22;20094;-73
2023/04/01 02:22:05;;;;;;;24.90;14.20;;;;;;;;;;6281622;22;20014;-74
2023/04/01 02:24:33;;;;;;;23.35;12.05;;;;;;;;;;6306647;22;20011;-73
2023/04/01 02:26:59;;;;;;;16.92;11.20;;;;;;;;;;6281333;22;20011;-73
2023/04/01 02:29:26;;;;;;;18.73;12.68;;;;;;;;;;6307066;22;20018;-74
2023/04/01 02:31:52;;;;;;;23.17;13.43;;;;;;;;;;6306719;22;20007;-72
2023/04/01 02:34:19;;;;;;;20.73;12.68;;;;;;;;;;6280110;22;20064;-74
2023/04/01 02:36:47;;;;;;;25.83;15.02;;;;;;;;;;6280371;22;20093;-74
2023/04/01 02:39:13;;;;;;;26.42;14.98;;;;;;;;;;6306184;22;20014;-73
2023/04/01 02:41:40;;;;;;;23.90;13.65;;;;;;;;;;6333781;22;20147;-74
2023/04/01 02:44:07;;;;;;;18.58;12.38;;;;;;;;;;6280335;22;20007;-75
2023/04/01 02:46:33;;;;;;;21.60;14.10;;;;;;;;;;6333568;22;20068;-73
2023/04/01 02:48:59;;;;;;;22.45;13.10;;;;;;;;;;6332923;22;20069;-72
2023/04/01 02:51:25;;;;;;;22.58;14.48;;;;;;;;;;6305715;22;20018;-74
2023/04/01 02:53:51;;;;;;;26.67;15.55;;;;;;;;;;6305199;22;20054;-74
2023/04/01 02:56:19;;;;;;;28.65;16.40;;;;;;;;;;6305760;22;20067;-75
2023/04/01 02:58:45;;;;;;;20.85;13.48;;;;;;;;;;6334102;22;20017;-75
2023/04/01 03:01:11;;;;;;;23.90;15.00;;;;;;;;;;6332570;22;20034;-75
2023/04/01 03:03:37;;;;;;;23.63;13.70;;;;;;;;;;6306348;22;20060;-74
2023/04/01 03:06:05;;;;;;;27.23;14.70;;;;;;;;;;6332890;22;20017;-76
2023/04/01 03:08:30;;;;;;;22.85;13.82;;;;;;;;;;6305860;22;20007;-76
2023/04/01 03:10:57;;;;;;;26.25;14.73;;;;;;;;;;6305545;22;20010;-75
2023/04/01 03:13:23;;;;;;;19.67;11.43;;;;;;;;;;6279214;22;20711;-75
2023/04/01 03:15:49;;;;;;;16.40;10.45;;;;;;;;;;6305645;22;20022;-75
2023/04/01 03:18:15;;;;;;;29.35;16.33;;;;;;;;;;6305525;22;20007;-75
2023/04/01 03:20:41;;;;;;;24.20;13.90;;;;;;;;;;6254252;22;20041;-74
2023/04/01 03:23:07;;;;;;;23.95;14.23;;;;;;;;;;6279434;22;20029;-74
2023/04/01 03:25:34;;;;;;;22.08;11.65;;;;;;;;;;6305838;22;20011;-75
2023/04/01 03:28:00;;;;;;;28.55;14.52;;;;;;;;;;6254429;22;20596;-75
2023/04/01 03:30:26;;;;;;;27.15;13.77;;;;;;;;;;6305463;22;20463;-74
2023/04/01 03:32:53;;;;;;;23.98;13.63;;;;;;;;;;6280241;22;20061;-74
2023/04/01 03:35:19;;;;;;;30.85;15.70;;;;;;;;;;6306071;22;20027;-74
2023/04/01 03:37:45;;;;;;;18.35;11.60;;;;;;;;;;6306853;22;20011;-74
2023/04/01 03:40:11;;;;;;;23.00;11.98;;;;;;;;;;6306409;22;20022;-73
2023/04/01 03:42:38;;;;;;;21.35;13.30;;;;;;;;;;6281479;22;20114;-75
2023/04/01 03:45:05;;;;;;;16.63;11.93;;;;;;;;;;6306276;22;20010;-73
2023/04/01 03:47:31;;;;;;;30.02;15.07;;;;;;;;;;6280990;22;20011;-73
2023/04/01 03:49:57;;;;;;;22.98;13.00;;;;;;;;;;6280230;22;20013;-73
2023/04/01 03:52:23;;;;;;;18.77;11.90;;;;;;;;;;6306627;22;20017;-73
2023/04/01 03:54:49;;;;;;;21.63;12.50;;;;;;;;;;6306012;22;20117;-73
2023/04/01 03:57:15;;;;;;;18.80;11.43;;;;;;;;;;6306274;22;20456;-73
2023/04/01 03:59:42;;;;;;;23.30;14.00;;;;;;;;;;6306396;22;20045;-74
2023/04/01 04:02:08;;;;;;;20.20;12.63;;;;;;;;;;6306226;22;20504;-74
2023/04/01 04:04:35;;;;;;;22.20;14.13;;;;;;;;;;6306287;22;20011;-75
2023/04/01 04:07:01;;;;;;;21.73;13.13;;;;;;;;;;6306249;22;20011;-75
2023/04/01 04:09:31;;;;;;;18.80;12.38;;;;;;;;;;6255536;22;20014;-74
2023/04/01 04:11:57;;;;;;;20.90;12.27;;;;;;;;;;6306053;22;20007;-74
2023/04/01 04:14:23;;;;;;;17.48;10.15;;;;;;;;;;6333887;22;20455;-74
2023/04/01 04:16:49;;;;;;;19.10;12.07;;;;;;;;;;6306542;22;20017;-75
2023/04/01 04:19:15;;;;;;;21.30;11.98;;;;;;;;;;6280475;22;20106;-75
2023/04/01 04:21:41;;;;;;;19.88;11.27;;;;;;;;;;6306460;22;20011;-74
2023/04/01 04:24:07;;;;;;;28.17;14.70;;;;;;;;;;6280558;22;20017;-74
2023/04/01 04:26:56;;;;;;;21.17;13.20;;;;;;;;;;6287824;22;20522;-74
2023/04/01 04:29:23;;;;;;;26.70;13.45;;;;;;;;;;6336498;22;20740;-73
2023/04/01 04:31:50;;;;;;;21.67;13.45;;;;;;;;;;6283607;22;20429;-74
2023/04/01 04:34:18;;;;;;;17.30;11.60;;;;;;;;;;6281282;22;20041;-76
2023/04/01 04:36:44;;;;;;;15.05;11.05;;;;;;;;;;6336078;22;20006;-79
2023/04/01 04:39:11;;;;;;;15.80;9.70;;;;;;;;;;6282151;22;20363;-79
2023/04/01 04:41:40;;;;;;;18.77;12.73;;;;;;;;;;6308596;22;20010;-79
2023/04/01 04:44:07;;;;;;;21.25;12.88;;;;;;;;;;6282106;22;20021;-78
2023/04/01 04:46:33;;;;;;;19.15;12.13;;;;;;;;;;6308593;22;20098;-77
2023/04/01 04:49:10;;;;;;;16.98;10.70;;;;;;;;;;6308084;22;20099;-79
2023/04/01 04:51:35;;;;;;;12.35;8.63;;;;;;;;;;6308531;22;20011;-78
2023/04/01 04:54:02;;;;;;;20.83;11.45;;;;;;;;;;6337047;22;20075;-82
2023/04/01 04:56:41;;;;;;;18.80;11.25;;;;;;;;;;6313421;22;20010;-80
2023/04/01 04:59:08;;;;;;;18.13;10.35;;;;;;;;;;6309314;22;20034;-78
2023/04/01 05:02:07;;;;;;;22.88;14.63;;;;;;;;;;6283922;22;20006;-81
2023/04/01 05:04:36;;;;;;;17.17;10.45;;;;;;;;;;6312783;22;20024;-78
2023/04/01 05:07:03;;;;;;;23.00;13.13;;;;;;;;;;6315735;22;20060;-78
2023/04/01 05:09:31;;;;;;;17.52;11.02;;;;;;;;;;6318055;22;20433;-78
2023/04/01 05:11:57;;;;;;;19.13;13.30;;;;;;;;;;6346417;22;20063;-79
2023/04/01 05:14:24;;;;;;;19.35;13.10;;;;;;;;;;6325880;22;20025;-77
2023/04/01 05:16:57;;;;;;;20.38;12.73;;;;;;;;;;6300504;22;20058;-78
2023/04/01 05:19:23;;;;;;;19.83;11.30;;;;;;;;;;6323316;22;20037;-78
2023/04/01 05:21:49;;;;;;;21.50;13.93;;;;;;;;;;6290868;22;20359;-80
2023/04/01 05:24:16;;;;;;;21.90;14.43;;;;;;;;;;6307165;22;20041;-78
2023/04/01 05:26:42;;;;;;;19.48;12.85;;;;;;;;;;6308544;22;20011;-79
2023/04/01 05:29:08;;;;;;;19.02;12.07;;;;;;;;;;6282339;22;20015;-77
2023/04/01 05:31:35;;;;;;;18.60;12.57;;;;;;;;;;6282846;22;20477;-79
2023/04/01 05:34:02;;;;;;;21.67;12.65;;;;;;;;;;6310268;22;20018;-82
2023/04/01 05:36:29;;;;;;;20.63;12.65;;;;;;;;;;6283334;22;20021;-79
2023/04/01 05:38:56;;;;;;;17.33;13.45;;;;;;;;;;6309722;22;20014;-80
2023/04/01 05:41:24;;;;;;;18.83;12.30;;;;;;;;;;6313384;22;20007;-82
2023/04/01 05:43:50;;;;;;;16.08;11.38;;;;;;;;;;6341008;22;20050;-81
2023/04/01 05:46:35;;;;;;;20.48;13.80;;;;;;;;;;6292519;22;20016;-81
2023/04/01 05:49:11;;;;;;;19.17;12.43;;;;;;;;;;6260081;22;20466;-80
2023/04/01 05:51:38;;;;;;;15.02;11.02;;;;;;;;;;6316424;22;20007;-82
2023/04/01 05:54:04;;;;;;;21.88;13.00;;;;;;;;;;6288742;22;20026;-81
2023/04/01 05:56:31;;;;;;;16.95;12.57;;;;;;;;;;6320703;22;20060;-81
2023/04/01 05:58:57;;;;;;;16.77;12.02;;;;;;;;;;6346407;22;20019;-84
2023/04/01 06:01:58;;;;;;;11.50;8.68;;;;;;;;;;6315719;22;20010;-80
2023/04/01 06:04:25;;;;;;;17.35;12.35;;;;;;;;;;6240786;22;20030;-82
2023/04/01 06:06:51;;;;;;;21.83;14.20;;;;;;;;;;6322055;22;20006;-81
2023/04/01 06:09:34;;;;;;;20.08;12.38;;;;;;;;;;6289738;22;20007;-78
2023/04/01 06:12:23;;;;;;;17.08;12.57;;;;;;;;;;6337848;22;20011;-83
2023/04/01 06:15:01;;;;;;;15.23;11.10;;;;;;;;;;6261714;22;20011;-81
2023/04/01 06:17:55;;;;;;;16.98;12.00;;;;;;;;;;6310022;22;20046;-77
2023/04/01 06:20:32;;;;;;;14.13;12.02;;;;;;;;;;6284234;22;20071;-81
2023/04/01 06:23:05;;;;;;;18.90;14.13;;;;;;;;;;6264955;22;20007;-82
2023/04/01 06:25:56;;;;;;;11.45;10.23;;;;;;;;;;6324896;22;20019;-81
2023/04/01 06:28:47;;;;;;;19.48;12.85;;;;;;;;;;6324861;22;20021;-79
2023/04/01 06:31:32;;;;;;;20.10;13.98;;;;;;;;;;6272093;22;20070;-80
2023/04/01 06:34:01;;;;;;;19.92;13.60;;;;;;;;;;6305209;22;20092;-80
2023/04/01 06:36:48;;;;;;;9.25;7.90;;;;;;;;;;6301927;22;20007;-79
2023/04/01 06:39:16;;;;;;;16.65;11.48;;;;;;;;;;6301001;22;20015;-77
2023/04/01 06:42:01;;;;;;;24.63;14.50;;;;;;;;;;6306195;22;20015;-79
2023/04/01 06:44:50;;;;;;;14.55;10.95;;;;;;;;;;6274180;22;20067;-78
2023/04/01 06:47:42;;;;;;;19.88;14.05;;;;;;;;;;6301876;22;20015;-78
2023/04/01 06:50:54;;;;;;;14.07;11.95;;;;;;;;;;6295998;22;20086;-79
2023/04/01 06:54:01;;;;;;;14.57;11.98;;;;;;;;;;6166745;23;20024;-80
2023/04/01 06:56:49;;;;;;;15.10;11.30;;;;;;;;;;6163074;23;20036;-80
2023/04/01 06:59:22;;;;;;;15.40;12.35;;;;;;;;;;6237895;22;20022;-78
2023/04/01 07:01:50;;;;;;;15.55;11.88;;;;;;;;;;6276174;22;20031;-80
2023/04/01 07:04:25;;;;;;;19.20;12.40;;;;;;;;;;6277347;22;20057;-79
2023/04/01 07:07:17;;;;;;;14.80;11.43;;;;;;;;;;6302644;22;20015;-81
2023/04/01 07:09:53;;;;;;;18.17;14.50;;;;;;;;;;6284479;22;20015;-80
2023/04/01 07:12:28;;;;;;;12.00;9.15;;;;;;;;;;6304348;22;20011;-80
2023/04/01 07:15:28;;;;;;;14.32;10.52;;;;;;;;;;6283038;22;20022;-79
2023/04/01 07:17:59;;;;;;;19.55;13.70;;;;;;;;;;6277484;22;20015;-81
2023/04/01 07:20:26;;;;;;;17.83;13.88;;;;;;;;;;6253111;22;20033;-81
2023/04/01 07:22:54;;;;;;;12.85;9.95;;;;;;;;;;6278525;22;20007;-80
2023/04/01 07:25:27;;;;;;;19.02;13.43;;;;;;;;;;6277783;22;20051;-79
2023/04/01 07:28:16;;;;;;;16.30;11.98;;;;;;;;;;6258729;22;20090;-80
2023/04/01 07:30:49;;;;;;;22.40;14.95;;;;;;;;;;6252177;22;20038;-80
2023/04/01 07:33:35;;;;;;;23.40;14.05;;;;;;;;;;6302006;22;20030;-79
2023/04/01 07:36:02;;;;;;;29.95;17.67;;;;;;;;;;6310829;22;20026;-80
2023/04/01 07:38:47;;;;;;;28.98;18.20;;;;;;;;;;6322480;22;20007;-80
2023/04/01 07:41:39;;;;;;;25.85;15.77;;;;;;;;;;6294907;22;20007;-79
2023/04/01 07:44:17;;;;;;;30.90;16.20;;;;;;;;;;6273420;22;20121;-80
2023/04/01 07:46:49;;;;;;;28.52;15.77;;;;;;;;;;6272074;22;20005;-80
2023/04/01 07:49:34;;;;;;;32.10;18.73;;;;;;;;;;6318149;22;20017;-81
2023/04/01 07:52:06;;;;;;;27.15;17.52;;;;;;;;;;6304223;22;20014;-79
2023/04/01 07:54:39;;;;;;;24.98;14.77;;;;;;;;;;6305371;22;20019;-80
2023/04/01 07:57:15;;;;;;;28.30;16.45;;;;;;;;;;6305961;22;20012;-80
2023/04/01 08:00:04;;;;;;;32.03;18.35;;;;;;;;;;6308636;22;20011;-79
2023/04/01 08:03:14;;;;;;;24.38;14.60;;;;;;;;;;6296920;22;20018;-79
2023/04/01 08:06:10;;;;;;;26.92;15.32;;;;;;;;;;6316176;22;20038;-79
2023/04/01 08:08:45;;;;;;;28.73;14.98;;;;;;;;;;6314017;22;20011;-79
2023/04/01 08:11:57;;;;;;;27.23;15.98;;;;;;;;;;6313999;22;20016;-79
2023/04/01 08:15:01;;;;;;;22.10;14.02;;;;;;;;;;6315028;22;20095;-79
2023/04/01 08:17:45;;;;;;;27.92;16.48;;;;;;;;;;6311981;22;20063;-77
2023/04/01 08:20:12;;;;;;;26.27;16.10;;;;;;;;;;6308204;22;20065;-78
2023/04/01 08:22:40;;;;;;;23.60;15.43;;;;;;;;;;6304350;22;20015;-79
2023/04/01 08:25:23;;;;;;;26.23;15.95;;;;;;;;;;6279194;22;20007;-78
2023/04/01 08:28:08;;;;;;;26.02;16.88;;;;;;;;;;6302336;22;20042;-78
2023/04/01 08:30:40;;;;;;;28.20;15.52;;;;;;;;;;6304581;22;20011;-77
2023/04/01 08:33:10;;;;;;;24.52;16.70;;;;;;;;;;6276256;22;20014;-78
2023/04/01 08:35:59;;;;;;;27.63;17.38;;;;;;;;;;6251409;22;20042;-78
2023/04/01 08:38:25;;;;;;;18.75;15.05;;;;;;;;;;6267400;22;20014;-78
2023/04/01 08:41:10;;;;;;;23.45;17.42;;;;;;;;;;6296500;22;20107;-76
2023/04/01 08:44:07;;;;;;;24.42;17.58;;;;;;;;;;6302315;22;20018;-80
2023/04/01 08:46:33;;;;;;;26.55;16.50;;;;;;;;;;6276655;22;20077;-77
2023/04/01 08:49:02;;;;;;;20.33;15.98;;;;;;;;;;6302478;22;20037;-81
2023/04/01 08:51:51;;;;;;;20.55;15.65;;;;;;;;;;6302921;22;20064;-80
2023/04/01 08:54:32;;;;;;;21.92;14.20;;;;;;;;;;6302374;22;20030;-77
2023/04/01 08:57:06;;;;;;;18.05;15.32;;;;;;;;;;6276718;22;20394;-80
2023/04/01 08:59:33;;;;;;;18.60;14.93;;;;;;;;;;6301351;22;20022;-76
2023/04/01 09:02:08;;;;;;;14.45;11.52;;;;;;;;;;6301004;22;20443;-78
2023/04/01 09:05:04;;;;;;;16.63;13.18;;;;;;;;;;6275277;22;20119;-77
2023/04/01 09:07:42;;;;;;;12.70;10.50;;;;;;;;;;6301615;22;20015;-76
2023/04/01 09:10:19;;;;;;;7.88;6.75;;;;;;;;;;6275600;22;20018;-76
2023/04/01 09:12:46;;;;;;;9.73;8.77;;;;;;;;;;6304490;22;20011;-76
2023/04/01 09:15:18;;;;;;;10.82;9.73;;;;;;;;;;6307681;22;20085;-76
2023/04/01 09:17:57;;;;;;;8.00;6.85;;;;;;;;;;6307059;22;20051;-78
2023/04/01 09:20:38;;;;;;;8.15;7.35;;;;;;;;;;6306887;22;20015;-77
2023/04/01 09:23:08;;;;;;;12.82;8.15;;;;;;;;;;6314340;22;20011;-77
2023/04/01 09:25:36;;;;;;;10.65;9.27;;;;;;;;;;6317055;22;20011;-77
2023/04/01 09:28:03;;;;;;;9.43;8.45;;;;;;;;;;6314532;22;20015;-78
2023/04/01 09:31:01;;;;;;;9.68;8.75;;;;;;;;;;6300755;22;20011;-75
2023/04/01 09:33:37;;;;;;;8.77;7.97;;;;;;;;;;6242086;22;20105;-79
2023/04/01 09:36:03;;;;;;;9.65;8.63;;;;;;;;;;6280566;22;20015;-78
2023/04/01 09:38:30;;;;;;;10.52;7.95;;;;;;;;;;6279906;22;20343;-77
2023/04/01 09:40:57;;;;;;;10.32;9.02;;;;;;;;;;6305604;22;20038;-76
2023/04/01 09:43:40;;;;;;;10.05;9.15;;;;;;;;;;6282975;22;20359;-76
2023/04/01 09:46:17;;;;;;;10.27;9.13;;;;;;;;;;6279934;22;20011;-73
2023/04/01 09:48:46;;;;;;;9.02;7.75;;;;;;;;;;6333208;22;20026;-74
2023/04/01 09:51:15;;;;;;;10.55;9.27;;;;;;;;;;6305574;22;20351;-76
2023/04/01 09:54:00;;;;;;;8.45;7.65;;;;;;;;;;6309794;22;20359;-74
2023/04/01 09:56:29;;;;;;;10.27;8.18;;;;;;;;;;6290923;22;20033;-77
2023/04/01 09:59:13;;;;;;;8.80;7.60;;;;;;;;;;6316795;22;20092;-79
2023/04/01 10:02:17;;;;;;;11.32;8.10;;;;;;;;;;6317282;22;20014;-77
2023/04/01 10:04:50;;;;;;;6.78;6.18;;;;;;;;;;6280602;22;20060;-75
2023/04/01 10:07:36;;;;;;;11.35;6.88;;;;;;;;;;6281230;22;20093;-79
2023/04/01 10:10:21;;;;;;;8.48;7.65;;;;;;;;;;6305954;22;20119;-79
2023/04/01 10:12:47;;;;;;;8.57;7.18;;;;;;;;;;6334140;22;20013;-81
2023/04/01 10:15:34;;;;;;;7.75;7.07;;;;;;;;;;6305505;22;20114;-75
2023/04/01 10:18:16;;;;;;;8.32;6.60;;;;;;;;;;6279913;22;20470;-78
2023/04/01 10:20:46;;;;;;;5.30;4.82;;;;;;;;;;6304833;22;20017;-76
2023/04/01 10:23:18;;;;;;;8.07;7.35;;;;;;;;;;6279016;22;20474;-76
2023/04/01 10:25:45;;;;;;;6.15;5.55;;;;;;;;;;6305329;22;20018;-78
2023/04/01 10:28:35;;;;;;;8.75;7.20;;;;;;;;;;6304945;22;20084;-78
2023/04/01 10:31:20;;;;;;;9.65;6.95;;;;;;;;;;6332715;22;20018;-80
2023/04/01 10:33:56;;;;;;;7.97;7.25;;;;;;;;;;6301049;22;20019;-80
2023/04/01 10:36:43;;;;;;;10.70;6.28;;;;;;;;;;6303021;22;20011;-79
2023/04/01 10:39:12;;;;;;;7.75;7.00;;;;;;;;;;6301513;22;20011;-79
2023/04/01 10:41:39;;;;;;;7.63;6.90;;;;;;;;;;6301237;22;20094;-79
2023/04/01 10:44:40;;;;;;;7.13;6.22;;;;;;;;;;6255082;22;20106;-81
2023/04/01 10:47:16;;;;;;;6.35;5.82;;;;;;;;;;6277286;22;20011;-77
2023/04/01 10:49:42;;;;;;;11.05;6.20;;;;;;;;;;6275308;22;20068;-80
2023/04/01 10:52:27;;;;;;;7.63;6.43;;;;;;;;;;6300888;22;20296;-78
2023/04/01 10:55:34;;;;;;;6.35;5.70;;;;;;;;;;6302997;22;20019;-79
2023/04/01 10:58:22;;;;;;;4.70;4.28;;;;;;;;;;6300623;22;20022;-79
2023/04/01 11:01:18;;;;;;;7.55;5.43;;;;;;;;;;6302371;22;20015;-80
2023/04/01 11:04:42;;;;;;;5.53;5.03;;;;;;;;;;6302295;22;20046;-80
2023/04/01 11:07:43;;;;;;;6.68;5.53;;;;;;;;;;6285962;22;20065;-79
2023/04/01 11:10:09;;;;;;;;;;;;;;;;;;6275997;22;20015;-80
2023/04/01 11:12:48;;;;;;;7.15;5.60;;;;;;;;;;6301379;22;19906;-80
2023/04/01 11:15:17;;;;;;;6.10;4.50;;;;;;;;;;6301570;22;20027;-78
2023/04/01 11:18:02;;;;;;;6.05;5.53;;;;;;;;;;6274851;22;20359;-80
2023/04/01 11:20:43;;;;;;;7.68;6.95;;;;;;;;;;6305769;22;20499;-78
2023/04/01 11:23:09;;;;;;;6.13;5.45;;;;;;;;;;6302045;22;20022;-79
2023/04/01 11:25:45;;;;;;;5.00;4.57;;;;;;;;;;6301995;22;20015;-78
2023/04/01 11:28:37;;;;;;;6.10;5.60;;;;;;;;;;6255151;22;20007;-80
2023/04/01 11:31:25;;;;;;;5.45;4.95;;;;;;;;;;6301315;22;20094;-79
2023/04/01 11:33:56;;;;;;;6.55;5.68;;;;;;;;;;6274439;22;20023;-78
2023/04/01 11:36:29;;;;;;;5.90;5.40;;;;;;;;;;6301200;22;20011;-77
2023/04/01 11:39:21;;;;;;;4.85;4.32;;;;;;;;;;6275422;22;20356;-77
2023/04/01 11:42:28;;;;;;;5.28;4.88;;;;;;;;;;6300089;22;20042;-79
2023/04/01 11:45:32;;;;;;;5.97;5.17;;;;;;;;;;6301692;22;20714;-79
2023/04/01 11:48:15;;;;;;;9.25;5.07;;;;;;;;;;6279169;22;20696;-80
2023/04/01 11:50:53;;;;;;;5.82;5.03;;;;;;;;;;6306613;22;20439;-81
2023/04/01 11:53:19;;;;;;;4.63;4.00;;;;;;;;;;6257841;22;20098;-82
2023/04/01 11:56:03;;;;;;;5.40;4.90;;;;;;;;;;6306663;22;20402;-83
2023/04/01 11:58:48;;;;;;;6.53;5.93;;;;;;;;;;6306964;22;20035;-83
2023/04/01 12:01:20;;;;;;;6.03;4.93;;;;;;;;;;6308489;22;20439;-78
2023/04/01 12:04:16;;;;;;;6.95;6.25;;;;;;;;;;6319520;22;20011;-84
2023/04/01 12:06:42;;;;;;;7.43;4.72;;;;;;;;;;6279215;22;20011;-83
2023/04/01 12:09:21;;;;;;;6.22;5.63;;;;;;;;;;6310586;22;20124;-83
2023/04/01 12:12:05;;;;;;;6.88;6.15;;;;;;;;;;6320647;22;20033;-85
2023/04/01 12:14:35;;;;;;;9.05;6.25;;;;;;;;;;6312146;22;20026;-80
2023/04/01 12:17:19;;;;;;;6.03;5.38;;;;;;;;;;6314945;22;20011;-84
2023/04/01 12:19:54;;;;;;;6.32;5.70;;;;;;;;;;6310440;22;20098;-84
2023/04/01 12:22:39;;;;;;;7.30;4.82;;;;;;;;;;6289805;22;20022;-83
2023/04/01 12:25:11;;;;;;;6.75;6.15;;;;;;;;;;6318488;22;20132;-80
2023/04/01 12:27:39;;;;;;;7.88;6.10;;;;;;;;;;6307766;22;20470;-81
2023/04/01 12:30:19;;;;;;;5.90;4.82;;;;;;;;;;6276617;22;20061;-82
2023/04/01 12:32:51;;;;;;;6.85;5.43;;;;;;;;;;6302030;22;20018;-82
2023/04/01 12:35:20;;;;;;;6.10;5.55;;;;;;;;;;6277352;22;20030;-81
2023/04/01 12:37:55;;;;;;;7.97;5.40;;;;;;;;;;6310093;22;20375;-82
2023/04/01 12:40:40;;;;;;;5.53;4.90;;;;;;;;;;6308654;22;20015;-82
2023/04/01 12:43:19;;;;;;;6.00;4.43;;;;;;;;;;6319980;22;20011;-82
2023/04/01 12:45:51;;;;;;;7.13;5.97;;;;;;;;;;6314227;22;20018;-80
2023/04/01 12:48:39;;;;;;;6.25;5.47;;;;;;;;;;6315909;22;20379;-78
2023/04/01 12:51:26;;;;;;;7.10;5.43;;;;;;;;;;6317717;22;20053;-81
2023/04/01 12:53:55;;;;;;;6.78;4.93;;;;;;;;;;6317171;22;20049;-82
2023/04/01 12:56:30;;;;;;;6.20;4.88;;;;;;;;;;6262016;22;20011;-83
2023/04/01 12:58:56;;;;;;;5.93;5.32;;;;;;;;;;6319286;22;20023;-82
2023/04/01 13:01:25;;;;;;;7.63;5.50;;;;;;;;;;6292304;22;20014;-84
2023/04/01 13:03:54;;;;;;;6.22;5.13;;;;;;;;;;6315349;22;20038;-83
2023/04/01 13:06:23;;;;;;;6.72;4.82;;;;;;;;;;6311335;22;20011;-83
2023/04/01 13:08:57;;;;;;;5.07;4.57;;;;;;;;;;6288252;22;20011;-84
2023/04/01 13:11:41;;;;;;;4.75;4.35;;;;;;;;;;6321488;22;20011;-84
2023/04/01 13:14:20;;;;;;;6.15;4.40;;;;;;;;;;6321496;22;20442;-83
2023/04/01 13:16:49;;;;;;;6.05;5.55;;;;;;;;;;6320604;22;20012;-84
2023/04/01 13:19:20;;;;;;;7.13;6.45;;;;;;;;;;6321569;22;20030;-83
2023/04/01 13:21:53;;;;;;;5.72;5.22;;;;;;;;;;6322700;22;20061;-84
2023/04/01 13:24:31;;;;;;;6.65;5.53;;;;;;;;;;6320613;22;20022;-84
2023/04/01 13:27:16;;;;;;;5.93;4.53;;;;;;;;;;6323623;22;20022;-83
2023/04/01 13:29:48;;;;;;;5.75;5.25;;;;;;;;;;6323937;22;20007;-84
2023/04/01 13:32:23;;;;;;;6.03;5.57;;;;;;;;;;6295547;22;20015;-84
2023/04/01 13:34:52;;;;;;;5.63;5.13;;;;;;;;;;6326427;22;20048;-83
2023/04/01 13:37:35;;;;;;;5.45;5.00;;;;;;;;;;6353512;22;20101;-83
2023/04/01 13:40:02;;;;;;;5.72;5.15;;;;;;;;;;6326235;22;20044;-83
2023/04/01 13:42:29;;;;;;;5.88;5.38;;;;;;;;;;6352862;22;20144;-84
2023/04/01 13:45:10;;;;;;;5.60;5.10;;;;;;;;;;6327621;22;20021;-83
2023/04/01 13:47:37;;;;;;;5.70;5.20;;;;;;;;;;6327022;22;20011;-84
2023/04/01 13:50:15;;;;;;;5.60;4.47;;;;;;;;;;6353658;22;20455;-84
2023/04/01 13:53:00;;;;;;;6.65;5.90;;;;;;;;;;6355755;22;20015;-83
2023/04/01 13:55:31;;;;;;;6.70;6.13;;;;;;;;;;6355353;22;20026;-84
2023/04/01 13:58:10;;;;;;;6.78;6.15;;;;;;;;;;6302747;22;20006;-83
2023/04/01 14:00:47;;;;;;;9.10;6.82;;;;;;;;;;6358033;22;20015;-83
2023/04/01 14:03:13;;;;;;;5.93;5.43;;;;;;;;;;6357797;22;20356;-84
2023/04/01 14:05:46;;;;;;;8.15;7.43;;;;;;;;;;6353845;22;20015;-84
2023/04/01 14:08:12;;;;;;;7.13;6.53;;;;;;;;;;6329920;22;20429;-84
2023/04/01 14:10:53;;;;;;;7.03;6.32;;;;;;;;;;6326364;22;20086;-83
2023/04/01 14:13:48;;;;;;;7.20;6.43;;;;;;;;;;6353787;22;20021;-83
2023/04/01 14:16:33;;;;;;;6.43;5.78;;;;;;;;;;6243029;22;20024;-83
2023/04/01 14:19:10;;;;;;;6.05;5.50;;;;;;;;;;6352087;22;20003;-83
2023/04/01 14:21:39;;;;;;;7.53;6.47;;;;;;;;;;6322517;22;20452;-82
2023/04/01 14:24:05;;;;;;;8.80;7.05;;;;;;;;;;6337600;22;20051;-83
2023/04/01 14:26:34;;;;;;;7.20;6.50;;;;;;;;;;6338599;22;20011;-83
2023/04/01 14:29:07;;;;;;;7.53;6.78;;;;;;;;;;6339905;22;20003;-84
2023/04/01 14:31:52;;;;;;;8.90;8.13;;;;;;;;;;6339206;22;20030;-84
2023/04/01 14:34:21;;;;;;;9.23;8.40;;;;;;;;;;6364435;22;20029;-83
2023/04/01 14:36:53;;;;;;;8.95;7.57;;;;;;;;;;6336909;22;20011;-84
2023/04/01 14:39:39;;;;;;;10.00;8.23;;;;;;;;;;6364844;22;20018;-83
2023/04/01 14:42:24;;;;;;;7.65;6.97;;;;;;;;;;6365353;22;19990;-83
2023/04/01 14:45:10;;;;;;;8.10;7.32;;;;;;;;;;6339238;22;20014;-82
2023/04/01 14:47:49;;;;;;;7.55;6.82;;;;;;;;;;6301093;22;20007;-83
2023/04/01 14:50:22;;;;;;;8.45;7.60;;;;;;;;;;6364106;22;20014;-82
2023/04/01 14:52:57;;;;;;;9.20;7.53;;;;;;;;;;6309002;22;20062;-83
2023/04/01 14:55:34;;;;;;;8.60;7.80;;;;;;;;;;6359251;22;20029;-84
2023/04/01 14:58:04;;;;;;;9.90;9.05;;;;;;;;;;6331667;22;20018;-84
2023/04/01 15:00:39;;;;;;;10.90;9.77;;;;;;;;;;6358132;22;20050;-84
2023/04/01 15:03:12;;;;;;;9.82;9.00;;;;;;;;;;6303711;22;20114;-83
2023/04/01 15:05:41;;;;;;;16.60;9.73;;;;;;;;;;6355618;22;20006;-84
2023/04/01 15:08:08;;;;;;;9.82;8.93;;;;;;;;;;6329863;22;20015;-83